Аэропорт: Емельяново. Красноярск

ICAO: UNKL

METAR:
2019/01/21 23:00
UNKL 212300Z 00000MPS 5000 BR NSC M09/M10 Q1017 R11/350145 NOSIG RMK QFE737
METAR:
2019/01/21 21:21
TAF UNKL 211957Z 2121/2221 29003MPS 3100 BR SCT011 
      TEMPO 2121/2204 0300 FZFG VV002 
     FM220400 27003G09MPS 4000 -SHSN BKN015CB 
      TEMPO 2204/2221 22008G14MPS 1000 SHSN BLSN SCT011 BKN014CB